sensor_id;sensor_type;location;lat;lon;timestamp;pressure;altitude;pressure_sealevel;temperature;humidity
6393;BME280;3229;42.674;23.282;2023-03-13T00:01:44;94857.44;;;8.13;42.86
6393;BME280;3229;42.674;23.282;2023-03-13T00:04:11;94857.66;;;8.10;42.89
6393;BME280;3229;42.674;23.282;2023-03-13T00:06:39;94849.22;;;8.09;42.72
6393;BME280;3229;42.674;23.282;2023-03-13T00:09:08;94856.16;;;8.07;42.83
6393;BME280;3229;42.674;23.282;2023-03-13T00:11:36;94852.94;;;8.05;42.76
6393;BME280;3229;42.674;23.282;2023-03-13T00:14:04;94861.50;;;8.04;42.90
6393;BME280;3229;42.674;23.282;2023-03-13T00:16:31;94851.53;;;8.01;42.86
6393;BME280;3229;42.674;23.282;2023-03-13T00:19:00;94863.47;;;8.00;42.88
6393;BME280;3229;42.674;23.282;2023-03-13T00:21:27;94858.59;;;7.97;42.97
6393;BME280;3229;42.674;23.282;2023-03-13T00:23:55;94868.13;;;7.95;42.97
6393;BME280;3229;42.674;23.282;2023-03-13T00:26:23;94866.47;;;7.94;42.99
6393;BME280;3229;42.674;23.282;2023-03-13T00:28:52;94867.41;;;7.93;42.97
6393;BME280;3229;42.674;23.282;2023-03-13T00:31:20;94860.81;;;7.91;42.98
6393;BME280;3229;42.674;23.282;2023-03-13T00:33:48;94870.06;;;7.92;43.08
6393;BME280;3229;42.674;23.282;2023-03-13T00:36:18;94868.56;;;7.89;43.15
6393;BME280;3229;42.674;23.282;2023-03-13T00:38:45;94865.34;;;7.87;43.14
6393;BME280;3229;42.674;23.282;2023-03-13T00:41:14;94869.63;;;7.87;43.13
6393;BME280;3229;42.674;23.282;2023-03-13T00:43:42;94873.19;;;7.84;43.29
6393;BME280;3229;42.674;23.282;2023-03-13T00:46:12;94866.50;;;7.83;43.05
6393;BME280;3229;42.674;23.282;2023-03-13T00:48:39;94868.34;;;7.81;43.40
6393;BME280;3229;42.674;23.282;2023-03-13T00:51:06;94865.78;;;7.81;43.06
6393;BME280;3229;42.674;23.282;2023-03-13T00:53:33;94872.75;;;7.79;43.35
6393;BME280;3229;42.674;23.282;2023-03-13T00:56:01;94861.03;;;7.76;43.40
6393;BME280;3229;42.674;23.282;2023-03-13T00:58:30;94871.22;;;7.76;43.37
6393;BME280;3229;42.674;23.282;2023-03-13T01:01:06;94865.59;;;7.73;43.37
6393;BME280;3229;42.674;23.282;2023-03-13T01:03:35;94859.66;;;7.72;43.47
6393;BME280;3229;42.674;23.282;2023-03-13T01:06:04;94858.03;;;7.71;43.55
6393;BME280;3229;42.674;23.282;2023-03-13T01:08:31;94860.81;;;7.68;43.52
6393;BME280;3229;42.674;23.282;2023-03-13T01:10:59;94858.53;;;7.65;43.49
6393;BME280;3229;42.674;23.282;2023-03-13T01:15:53;94849.59;;;7.60;43.53
6393;BME280;3229;42.674;23.282;2023-03-13T01:18:20;94853.78;;;7.61;43.60
6393;BME280;3229;42.674;23.282;2023-03-13T01:20:49;94854.13;;;7.56;43.71
6393;BME280;3229;42.674;23.282;2023-03-13T01:23:15;94857.22;;;7.60;43.66
6393;BME280;3229;42.674;23.282;2023-03-13T01:25:42;94857.47;;;7.57;43.78
6393;BME280;3229;42.674;23.282;2023-03-13T01:28:09;94862.56;;;7.57;43.80
6393;BME280;3229;42.674;23.282;2023-03-13T01:30:36;94869.41;;;7.56;43.74
6393;BME280;3229;42.674;23.282;2023-03-13T01:33:02;94868.69;;;7.54;43.85
6393;BME280;3229;42.674;23.282;2023-03-13T01:35:29;94879.00;;;7.52;43.94
6393;BME280;3229;42.674;23.282;2023-03-13T01:37:57;94875.63;;;7.52;43.85
6393;BME280;3229;42.674;23.282;2023-03-13T01:40:24;94875.63;;;7.52;43.78
6393;BME280;3229;42.674;23.282;2023-03-13T01:42:52;94880.81;;;7.50;43.82
6393;BME280;3229;42.674;23.282;2023-03-13T01:45:50;94875.97;;;7.47;43.85
6393;BME280;3229;42.674;23.282;2023-03-13T01:48:19;94876.88;;;7.46;44.00
6393;BME280;3229;42.674;23.282;2023-03-13T01:50:46;94877.94;;;7.44;43.89
6393;BME280;3229;42.674;23.282;2023-03-13T01:53:15;94877.13;;;7.43;43.97
6393;BME280;3229;42.674;23.282;2023-03-13T01:55:42;94878.03;;;7.42;44.11
6393;BME280;3229;42.674;23.282;2023-03-13T01:58:08;94875.63;;;7.41;44.03
6393;BME280;3229;42.674;23.282;2023-03-13T02:00:36;94869.84;;;7.39;44.11
6393;BME280;3229;42.674;23.282;2023-03-13T02:03:06;94871.56;;;7.38;44.19
6393;BME280;3229;42.674;23.282;2023-03-13T02:05:34;94869.13;;;7.37;44.32
6393;BME280;3229;42.674;23.282;2023-03-13T02:08:05;94872.47;;;7.37;44.18
6393;BME280;3229;42.674;23.282;2023-03-13T02:10:38;94868.53;;;7.33;44.39
6393;BME280;3229;42.674;23.282;2023-03-13T02:13:08;94878.03;;;7.31;44.36
6393;BME280;3229;42.674;23.282;2023-03-13T02:15:39;94878.03;;;7.31;44.11
6393;BME280;3229;42.674;23.282;2023-03-13T02:18:07;94890.75;;;7.31;44.46
6393;BME280;3229;42.674;23.282;2023-03-13T02:20:33;94889.16;;;7.30;44.50
6393;BME280;3229;42.674;23.282;2023-03-13T02:23:05;94891.78;;;7.28;44.53
6393;BME280;3229;42.674;23.282;2023-03-13T02:25:41;94895.25;;;7.27;44.52
6393;BME280;3229;42.674;23.282;2023-03-13T02:28:12;94900.47;;;7.26;44.53
6393;BME280;3229;42.674;23.282;2023-03-13T02:30:43;94903.09;;;7.24;44.66
6393;BME280;3229;42.674;23.282;2023-03-13T02:33:10;94894.88;;;7.21;44.70
6393;BME280;3229;42.674;23.282;2023-03-13T02:35:38;94912.59;;;7.22;44.88
6393;BME280;3229;42.674;23.282;2023-03-13T02:38:07;94916.88;;;7.22;44.84
6393;BME280;3229;42.674;23.282;2023-03-13T02:40:37;94917.88;;;7.19;44.63
6393;BME280;3229;42.674;23.282;2023-03-13T02:43:10;94923.78;;;7.20;44.95
6393;BME280;3229;42.674;23.282;2023-03-13T02:45:38;94936.63;;;7.18;44.69
6393;BME280;3229;42.674;23.282;2023-03-13T02:48:05;94939.28;;;7.17;44.77
6393;BME280;3229;42.674;23.282;2023-03-13T02:50:35;94940.19;;;7.16;44.79
6393;BME280;3229;42.674;23.282;2023-03-13T02:53:05;94936.97;;;7.14;44.84
6393;BME280;3229;42.674;23.282;2023-03-13T02:55:36;94935.34;;;7.13;44.84
6393;BME280;3229;42.674;23.282;2023-03-13T02:58:06;94938.78;;;7.12;44.92
6393;BME280;3229;42.674;23.282;2023-03-13T03:00:34;94942.13;;;7.12;45.01
6393;BME280;3229;42.674;23.282;2023-03-13T03:03:01;94938.91;;;7.10;44.96
6393;BME280;3229;42.674;23.282;2023-03-13T03:05:28;94935.69;;;7.08;45.09
6393;BME280;3229;42.674;23.282;2023-03-13T03:07:55;94939.91;;;7.08;45.11
6393;BME280;3229;42.674;23.282;2023-03-13T03:10:22;94934.16;;;7.06;45.14
6393;BME280;3229;42.674;23.282;2023-03-13T03:12:48;94939.25;;;7.06;45.12
6393;BME280;3229;42.674;23.282;2023-03-13T03:15:17;94941.06;;;7.03;45.16
6393;BME280;3229;42.674;23.282;2023-03-13T03:17:44;94950.44;;;7.03;45.25
6393;BME280;3229;42.674;23.282;2023-03-13T03:20:11;94955.50;;;7.03;45.18
6393;BME280;3229;42.674;23.282;2023-03-13T03:22:38;94969.28;;;7.00;45.12
6393;BME280;3229;42.674;23.282;2023-03-13T03:25:06;94977.81;;;6.99;45.29
6393;BME280;3229;42.674;23.282;2023-03-13T03:27:33;94977.22;;;6.96;45.36
6393;BME280;3229;42.674;23.282;2023-03-13T03:30:01;94973.38;;;6.90;45.31
6393;BME280;3229;42.674;23.282;2023-03-13T03:32:29;94977.44;;;6.93;45.35
6393;BME280;3229;42.674;23.282;2023-03-13T03:34:56;94980.66;;;6.95;45.35
6393;BME280;3229;42.674;23.282;2023-03-13T03:37:22;94977.44;;;6.93;45.17
6393;BME280;3229;42.674;23.282;2023-03-13T03:39:49;94977.56;;;6.91;45.38
6393;BME280;3229;42.674;23.282;2023-03-13T03:42:16;94990.34;;;6.90;45.30
6393;BME280;3229;42.674;23.282;2023-03-13T03:44:43;94994.75;;;6.88;45.60
6393;BME280;3229;42.674;23.282;2023-03-13T03:47:09;95003.31;;;6.87;45.69
6393;BME280;3229;42.674;23.282;2023-03-13T03:49:37;95009.28;;;6.86;45.66
6393;BME280;3229;42.674;23.282;2023-03-13T03:52:05;95012.75;;;6.85;45.76
6393;BME280;3229;42.674;23.282;2023-03-13T03:54:32;95012.06;;;6.83;45.75
6393;BME280;3229;42.674;23.282;2023-03-13T03:56:59;95004.53;;;6.81;45.64
6393;BME280;3229;42.674;23.282;2023-03-13T03:59:26;95015.63;;;6.80;45.79
6393;BME280;3229;42.674;23.282;2023-03-13T04:01:52;95014.31;;;6.74;45.87
6393;BME280;3229;42.674;23.282;2023-03-13T04:04:19;94996.56;;;6.62;45.93
6393;BME280;3229;42.674;23.282;2023-03-13T04:06:47;95018.59;;;6.74;46.09
6393;BME280;3229;42.674;23.282;2023-03-13T04:09:14;95024.56;;;6.73;46.15
6393;BME280;3229;42.674;23.282;2023-03-13T04:11:41;95028.03;;;6.72;46.13
6393;BME280;3229;42.674;23.282;2023-03-13T04:14:08;95033.25;;;6.70;45.91
6393;BME280;3229;42.674;23.282;2023-03-13T04:16:34;95038.41;;;6.69;46.14
6393;BME280;3229;42.674;23.282;2023-03-13T04:19:01;95041.06;;;6.67;46.38
6393;BME280;3229;42.674;23.282;2023-03-13T04:21:28;95043.59;;;6.67;46.32
6393;BME280;3229;42.674;23.282;2023-03-13T04:23:56;95052.25;;;6.65;46.53
6393;BME280;3229;42.674;23.282;2023-03-13T04:26:23;95052.34;;;6.63;46.37
6393;BME280;3229;42.674;23.282;2023-03-13T04:28:50;95055.81;;;6.62;46.47
6393;BME280;3229;42.674;23.282;2023-03-13T04:31:16;95057.56;;;6.62;46.54
6393;BME280;3229;42.674;23.282;2023-03-13T04:33:43;95065.19;;;6.62;46.56
6393;BME280;3229;42.674;23.282;2023-03-13T04:36:10;95067.81;;;6.60;46.50
6393;BME280;3229;42.674;23.282;2023-03-13T04:38:37;95080.63;;;6.59;46.79
6393;BME280;3229;42.674;23.282;2023-03-13T04:41:05;95083.34;;;6.56;46.62
6393;BME280;3229;42.674;23.282;2023-03-13T04:43:32;95080.00;;;6.55;46.54
6393;BME280;3229;42.674;23.282;2023-03-13T04:45:59;95081.63;;;6.56;46.81
6393;BME280;3229;42.674;23.282;2023-03-13T04:48:25;95087.44;;;6.58;46.52
6393;BME280;3229;42.674;23.282;2023-03-13T04:50:52;95092.50;;;6.58;46.74
6393;BME280;3229;42.674;23.282;2023-03-13T04:53:19;95095.88;;;6.59;46.75
6393;BME280;3229;42.674;23.282;2023-03-13T04:55:47;95093.94;;;6.62;46.73
6393;BME280;3229;42.674;23.282;2023-03-13T04:58:16;95089.56;;;6.64;46.87
6393;BME280;3229;42.674;23.282;2023-03-13T05:00:43;95093.63;;;6.67;46.80
6393;BME280;3229;42.674;23.282;2023-03-13T05:03:10;95091.78;;;6.69;46.72
6393;BME280;3229;42.674;23.282;2023-03-13T05:05:36;95088.03;;;6.74;46.65
6393;BME280;3229;42.674;23.282;2023-03-13T05:08:04;95090.03;;;6.82;46.54
6393;BME280;3229;42.674;23.282;2023-03-13T05:10:30;95091.97;;;6.91;46.49
6393;BME280;3229;42.674;23.282;2023-03-13T05:12:57;95096.78;;;7.07;46.37
6393;BME280;3229;42.674;23.282;2023-03-13T05:15:25;95105.38;;;7.30;46.10
6393;BME280;3229;42.674;23.282;2023-03-13T05:17:52;95112.25;;;7.65;45.69
6393;BME280;3229;42.674;23.282;2023-03-13T05:20:19;95104.72;;;8.10;45.58
6393;BME280;3229;42.674;23.282;2023-03-13T05:22:46;95106.78;;;8.62;45.14
6393;BME280;3229;42.674;23.282;2023-03-13T05:25:12;95119.16;;;9.23;45.04
6393;BME280;3229;42.674;23.282;2023-03-13T05:27:39;95122.44;;;9.89;44.86
6393;BME280;3229;42.674;23.282;2023-03-13T05:30:07;95122.78;;;10.59;44.45
6393;BME280;3229;42.674;23.282;2023-03-13T05:32:35;95127.75;;;11.31;43.73
6393;BME280;3229;42.674;23.282;2023-03-13T05:35:02;95120.16;;;12.09;43.52
6393;BME280;3229;42.674;23.282;2023-03-13T05:37:29;95119.84;;;12.88;43.07
6393;BME280;3229;42.674;23.282;2023-03-13T05:39:56;95125.13;;;13.69;42.23
6393;BME280;3229;42.674;23.282;2023-03-13T05:42:23;95119.84;;;14.50;41.73
6393;BME280;3229;42.674;23.282;2023-03-13T05:44:51;95126.56;;;15.37;40.81
6393;BME280;3229;42.674;23.282;2023-03-13T05:47:18;95126.06;;;16.17;40.03
6393;BME280;3229;42.674;23.282;2023-03-13T05:49:46;95127.41;;;17.01;39.47
6393;BME280;3229;42.674;23.282;2023-03-13T05:52:13;95140.13;;;17.89;52.89
6393;BME280;3229;42.674;23.282;2023-03-13T05:54:40;95132.81;;;18.76;52.02
6393;BME280;3229;42.674;23.282;2023-03-13T05:57:06;95140.03;;;19.55;49.97
6393;BME280;3229;42.674;23.282;2023-03-13T05:59:33;95143.16;;;20.23;48.21
6393;BME280;3229;42.674;23.282;2023-03-13T06:02:00;95144.88;;;20.87;45.54
6393;BME280;3229;42.674;23.282;2023-03-13T06:06:55;95150.84;;;21.98;40.55
6393;BME280;3229;42.674;23.282;2023-03-13T06:09:22;95157.94;;;22.44;36.47
6393;BME280;3229;42.674;23.282;2023-03-13T06:11:49;95160.16;;;22.93;36.67
6393;BME280;3229;42.674;23.282;2023-03-13T06:14:16;95151.19;;;23.47;37.35
6393;BME280;3229;42.674;23.282;2023-03-13T06:16:43;95148.34;;;24.00;37.94
6393;BME280;3229;42.674;23.282;2023-03-13T06:19:09;95148.84;;;24.54;38.28
6393;BME280;3229;42.674;23.282;2023-03-13T06:21:36;95144.97;;;25.07;35.18
6393;BME280;3229;42.674;23.282;2023-03-13T06:24:05;95145.34;;;25.47;32.42
6393;BME280;3229;42.674;23.282;2023-03-13T06:26:32;95148.63;;;25.79;31.17
6393;BME280;3229;42.674;23.282;2023-03-13T06:28:59;95130.34;;;25.91;29.69
6393;BME280;3229;42.674;23.282;2023-03-13T06:31:26;95153.81;;;26.27;28.35
6393;BME280;3229;42.674;23.282;2023-03-13T06:33:53;95148.63;;;26.51;27.31
6393;BME280;3229;42.674;23.282;2023-03-13T06:36:20;95139.44;;;26.72;26.18
6393;BME280;3229;42.674;23.282;2023-03-13T06:38:47;95137.50;;;26.91;25.86
6393;BME280;3229;42.674;23.282;2023-03-13T06:41:15;95136.16;;;27.12;25.69
6393;BME280;3229;42.674;23.282;2023-03-13T06:43:42;95135.78;;;27.32;25.63
6393;BME280;3229;42.674;23.282;2023-03-13T06:46:15;95139.63;;;27.52;26.23
6393;BME280;3229;42.674;23.282;2023-03-13T06:48:42;95142.22;;;27.64;27.04
6393;BME280;3229;42.674;23.282;2023-03-13T06:51:11;95150.22;;;27.69;28.27
6393;BME280;3229;42.674;23.282;2023-03-13T06:53:38;95153.75;;;27.75;29.22
6393;BME280;3229;42.674;23.282;2023-03-13T06:56:05;95141.50;;;27.81;29.81
6393;BME280;3229;42.674;23.282;2023-03-13T06:58:34;95144.47;;;27.84;29.92
6393;BME280;3229;42.674;23.282;2023-03-13T07:01:05;95147.44;;;27.88;30.11
6393;BME280;3229;42.674;23.282;2023-03-13T07:03:33;95141.25;;;27.94;30.50
6393;BME280;3229;42.674;23.282;2023-03-13T07:06:00;95137.19;;;28.03;30.31
6393;BME280;3229;42.674;23.282;2023-03-13T07:08:27;95129.88;;;28.05;30.37
6393;BME280;3229;42.674;23.282;2023-03-13T07:10:58;95145.00;;;28.15;30.84
6393;BME280;3229;42.674;23.282;2023-03-13T07:13:25;95151.66;;;28.17;30.92
6393;BME280;3229;42.674;23.282;2023-03-13T07:15:54;95144.16;;;28.26;30.76
6393;BME280;3229;42.674;23.282;2023-03-13T07:18:21;95144.03;;;28.33;31.18
6393;BME280;3229;42.674;23.282;2023-03-13T07:20:52;95129.63;;;28.35;31.28
6393;BME280;3229;42.674;23.282;2023-03-13T07:23:19;95138.31;;;28.36;31.36
6393;BME280;3229;42.674;23.282;2023-03-13T07:25:52;95135.47;;;28.37;31.52
6393;BME280;3229;42.674;23.282;2023-03-13T07:28:20;95137.84;;;28.39;30.83
6393;BME280;3229;42.674;23.282;2023-03-13T07:30:47;95134.16;;;28.40;31.53
6393;BME280;3229;42.674;23.282;2023-03-13T07:33:16;95135.75;;;28.41;31.06
6393;BME280;3229;42.674;23.282;2023-03-13T07:35:47;95139.22;;;28.41;30.65
6393;BME280;3229;42.674;23.282;2023-03-13T07:38:14;95133.69;;;28.43;31.12
6393;BME280;3229;42.674;23.282;2023-03-13T07:40:47;95136.66;;;28.46;30.54
6393;BME280;3229;42.674;23.282;2023-03-13T07:43:14;95142.47;;;28.48;30.68
6393;BME280;3229;42.674;23.282;2023-03-13T07:45:49;95147.72;;;28.48;30.17
6393;BME280;3229;42.674;23.282;2023-03-13T07:48:18;95134.75;;;28.42;30.27
6393;BME280;3229;42.674;23.282;2023-03-13T07:50:45;95138.72;;;28.44;29.93
6393;BME280;3229;42.674;23.282;2023-03-13T07:53:12;95139.22;;;28.41;30.06
6393;BME280;3229;42.674;23.282;2023-03-13T07:55:51;95132.56;;;28.39;29.71
6393;BME280;3229;42.674;23.282;2023-03-13T07:58:18;95138.78;;;28.33;29.75
6393;BME280;3229;42.674;23.282;2023-03-13T08:00:45;95107.97;;;28.16;29.63
6393;BME280;3229;42.674;23.282;2023-03-13T08:03:11;95127.00;;;28.23;29.33
6393;BME280;3229;42.674;23.282;2023-03-13T08:05:40;95117.47;;;28.17;28.94
6393;BME280;3229;42.674;23.282;2023-03-13T08:08:07;95117.03;;;28.09;28.65
6393;BME280;3229;42.674;23.282;2023-03-13T08:10:34;95118.22;;;28.01;28.46
6393;BME280;3229;42.674;23.282;2023-03-13T08:13:01;95117.00;;;27.92;29.10
6393;BME280;3229;42.674;23.282;2023-03-13T08:15:27;95105.97;;;27.78;28.92
6393;BME280;3229;42.674;23.282;2023-03-13T08:17:55;95112.50;;;27.75;28.93
6393;BME280;3229;42.674;23.282;2023-03-13T08:20:22;95115.47;;;27.67;27.58
6393;BME280;3229;42.674;23.282;2023-03-13T08:22:50;95118.25;;;27.61;27.92
6393;BME280;3229;42.674;23.282;2023-03-13T08:25:17;95117.91;;;27.57;25.75
6393;BME280;3229;42.674;23.282;2023-03-13T08:27:44;95134.47;;;27.46;26.75
6393;BME280;3229;42.674;23.282;2023-03-13T08:30:12;95132.09;;;27.44;27.46
6393;BME280;3229;42.674;23.282;2023-03-13T08:32:38;95131.66;;;27.47;27.41
6393;BME280;3229;42.674;23.282;2023-03-13T08:35:06;95137.56;;;27.55;27.72
6393;BME280;3229;42.674;23.282;2023-03-13T08:37:33;95137.88;;;27.58;28.00
6393;BME280;3229;42.674;23.282;2023-03-13T08:40:02;95139.50;;;27.59;27.76
6393;BME280;3229;42.674;23.282;2023-03-13T08:42:35;95141.31;;;27.59;27.72
6393;BME280;3229;42.674;23.282;2023-03-13T08:45:02;95129.44;;;27.56;28.30
6393;BME280;3229;42.674;23.282;2023-03-13T08:47:29;95132.28;;;27.55;28.08
6393;BME280;3229;42.674;23.282;2023-03-13T08:49:56;95123.31;;;27.50;28.62
6393;BME280;3229;42.674;23.282;2023-03-13T08:52:24;95122.97;;;27.47;28.28
6393;BME280;3229;42.674;23.282;2023-03-13T08:54:51;95123.09;;;27.40;28.23
6393;BME280;3229;42.674;23.282;2023-03-13T08:57:19;95125.63;;;27.35;27.81
6393;BME280;3229;42.674;23.282;2023-03-13T08:59:46;95115.38;;;27.10;29.01
6393;BME280;3229;42.674;23.282;2023-03-13T09:02:14;95119.03;;;26.86;29.19
6393;BME280;3229;42.674;23.282;2023-03-13T09:04:46;95118.66;;;26.59;29.64
6393;BME280;3229;42.674;23.282;2023-03-13T09:07:14;95118.81;;;26.34;30.18
6393;BME280;3229;42.674;23.282;2023-03-13T09:09:41;95119.56;;;26.11;30.54
6393;BME280;3229;42.674;23.282;2023-03-13T09:12:09;95120.66;;;25.91;31.40
6393;BME280;3229;42.674;23.282;2023-03-13T09:14:37;95117.47;;;25.71;31.41
6393;BME280;3229;42.674;23.282;2023-03-13T09:17:04;95112.25;;;25.52;32.38
6393;BME280;3229;42.674;23.282;2023-03-13T09:19:31;95101.44;;;25.31;32.61
6393;BME280;3229;42.674;23.282;2023-03-13T09:21:59;95095.84;;;25.09;32.71
6393;BME280;3229;42.674;23.282;2023-03-13T09:24:25;95105.78;;;25.00;33.30
6393;BME280;3229;42.674;23.282;2023-03-13T09:26:52;95104.28;;;24.86;33.33
6393;BME280;3229;42.674;23.282;2023-03-13T09:29:19;95105.81;;;24.75;33.58
6393;BME280;3229;42.674;23.282;2023-03-13T09:31:47;95106.50;;;24.64;33.69
6393;BME280;3229;42.674;23.282;2023-03-13T09:34:14;95114.25;;;24.52;33.56
6393;BME280;3229;42.674;23.282;2023-03-13T09:36:41;95107.53;;;24.38;33.80
6393;BME280;3229;42.674;23.282;2023-03-13T09:39:07;95102.00;;;24.21;34.17
6393;BME280;3229;42.674;23.282;2023-03-13T09:41:38;95111.09;;;24.12;34.20
6393;BME280;3229;42.674;23.282;2023-03-13T09:44:13;95103.78;;;23.95;34.40
6393;BME280;3229;42.674;23.282;2023-03-13T09:46:53;95093.00;;;23.78;34.53
6393;BME280;3229;42.674;23.282;2023-03-13T09:49:28;95087.69;;;23.67;34.80
6393;BME280;3229;42.674;23.282;2023-03-13T09:52:02;95088.50;;;23.54;35.00
6393;BME280;3229;42.674;23.282;2023-03-13T09:54:34;95090.75;;;23.44;35.63
6393;BME280;3229;42.674;23.282;2023-03-13T09:57:09;95086.78;;;23.35;35.65
6393;BME280;3229;42.674;23.282;2023-03-13T09:59:44;95090.00;;;23.30;36.01
6393;BME280;3229;42.674;23.282;2023-03-13T10:02:22;95093.63;;;23.22;36.07
6393;BME280;3229;42.674;23.282;2023-03-13T10:04:52;95084.25;;;23.15;36.38
6393;BME280;3229;42.674;23.282;2023-03-13T10:07:22;95081.44;;;23.10;36.44
6393;BME280;3229;42.674;23.282;2023-03-13T10:09:49;95084.47;;;23.07;36.50
6393;BME280;3229;42.674;23.282;2023-03-13T10:12:19;95081.69;;;23.01;36.78
6393;BME280;3229;42.674;23.282;2023-03-13T10:15:04;95069.22;;;22.97;36.81
6393;BME280;3229;42.674;23.282;2023-03-13T10:17:40;95058.63;;;22.92;36.80
6393;BME280;3229;42.674;23.282;2023-03-13T10:20:16;95053.19;;;22.87;36.89
6393;BME280;3229;42.674;23.282;2023-03-13T10:22:47;95051.81;;;22.84;37.15
6393;BME280;3229;42.674;23.282;2023-03-13T10:25:24;95047.78;;;22.75;36.92
6393;BME280;3229;42.674;23.282;2023-03-13T10:27:53;95047.78;;;22.75;36.95
6393;BME280;3229;42.674;23.282;2023-03-13T10:30:23;95043.19;;;22.70;37.29
6393;BME280;3229;42.674;23.282;2023-03-13T10:32:53;95035.81;;;22.67;37.24
6393;BME280;3229;42.674;23.282;2023-03-13T10:35:22;95034.78;;;22.62;37.52
6393;BME280;3229;42.674;23.282;2023-03-13T10:37:49;95025.59;;;22.59;37.23
6393;BME280;3229;42.674;23.282;2023-03-13T10:40:20;95019.19;;;22.55;37.44
6393;BME280;3229;42.674;23.282;2023-03-13T10:42:50;95020.78;;;22.56;37.64
6393;BME280;3229;42.674;23.282;2023-03-13T10:45:19;95019.97;;;22.56;37.58
6393;BME280;3229;42.674;23.282;2023-03-13T10:47:54;95013.34;;;22.53;37.64
6393;BME280;3229;42.674;23.282;2023-03-13T10:50:24;95016.97;;;22.52;37.48
6393;BME280;3229;42.674;23.282;2023-03-13T10:52:51;95021.97;;;22.53;37.49
6393;BME280;3229;42.674;23.282;2023-03-13T10:55:20;95012.56;;;22.52;37.54
6393;BME280;3229;42.674;23.282;2023-03-13T10:57:56;95013.56;;;22.51;37.73
6393;BME280;3229;42.674;23.282;2023-03-13T11:00:29;95009.53;;;22.49;37.53
6393;BME280;3229;42.674;23.282;2023-03-13T11:02:57;95007.16;;;22.47;37.77
6393;BME280;3229;42.674;23.282;2023-03-13T11:05:37;94974.09;;;22.35;37.72
6393;BME280;3229;42.674;23.282;2023-03-13T11:08:17;94990.09;;;22.45;37.63
6393;BME280;3229;42.674;23.282;2023-03-13T11:10:55;94961.47;;;22.32;37.62
6393;BME280;3229;42.674;23.282;2023-03-13T11:13:42;94982.50;;;22.43;37.76
6393;BME280;3229;42.674;23.282;2023-03-13T11:16:17;94983.13;;;22.45;37.64
6393;BME280;3229;42.674;23.282;2023-03-13T11:19:07;94982.09;;;22.46;37.78
6393;BME280;3229;42.674;23.282;2023-03-13T11:21:43;94971.69;;;22.46;37.75
6393;BME280;3229;42.674;23.282;2023-03-13T11:24:14;94969.06;;;22.46;37.73
6393;BME280;3229;42.674;23.282;2023-03-13T11:26:49;94967.03;;;22.48;37.61
6393;BME280;3229;42.674;23.282;2023-03-13T11:29:25;94964.44;;;22.48;37.84
6393;BME280;3229;42.674;23.282;2023-03-13T11:31:59;94965.03;;;22.50;37.89
6393;BME280;3229;42.674;23.282;2023-03-13T11:34:33;94965.84;;;22.51;37.92
6393;BME280;3229;42.674;23.282;2023-03-13T11:37:08;94957.22;;;22.50;37.87
6393;BME280;3229;42.674;23.282;2023-03-13T11:39:54;94945.78;;;22.51;37.91
6393;BME280;3229;42.674;23.282;2023-03-13T11:42:39;94948.19;;;22.53;37.56
6393;BME280;3229;42.674;23.282;2023-03-13T11:45:26;94947.19;;;22.54;37.47
6393;BME280;3229;42.674;23.282;2023-03-13T11:48:02;94935.94;;;22.53;37.59
6393;BME280;3229;42.674;23.282;2023-03-13T11:50:38;94931.34;;;22.56;37.77
6393;BME280;3229;42.674;23.282;2023-03-13T11:53:21;94923.53;;;22.56;37.80
6393;BME280;3229;42.674;23.282;2023-03-13T11:56:00;94921.72;;;22.56;37.64
6393;BME280;3229;42.674;23.282;2023-03-13T11:58:41;94918.31;;;22.56;38.03
6393;BME280;3229;42.674;23.282;2023-03-13T12:01:11;94913.09;;;22.56;38.14
6393;BME280;3229;42.674;23.282;2023-03-13T12:03:45;94906.88;;;22.57;38.31
6393;BME280;3229;42.674;23.282;2023-03-13T12:06:23;94901.66;;;22.57;38.24
6393;BME280;3229;42.674;23.282;2023-03-13T12:08:54;94896.44;;;22.57;38.58
6393;BME280;3229;42.674;23.282;2023-03-13T12:11:26;94898.03;;;22.58;38.71
6393;BME280;3229;42.674;23.282;2023-03-13T12:13:57;94891.22;;;22.57;38.63
6393;BME280;3229;42.674;23.282;2023-03-13T12:16:36;94879.22;;;22.56;38.60
6393;BME280;3229;42.674;23.282;2023-03-13T12:19:08;94886.81;;;22.57;38.68
6393;BME280;3229;42.674;23.282;2023-03-13T12:21:41;94885.00;;;22.58;38.62
6393;BME280;3229;42.674;23.282;2023-03-13T12:24:18;94886.00;;;22.57;38.68
6393;BME280;3229;42.674;23.282;2023-03-13T12:26:50;94878.41;;;22.55;38.76
6393;BME280;3229;42.674;23.282;2023-03-13T12:29:26;94878.59;;;22.53;38.49
6393;BME280;3229;42.674;23.282;2023-03-13T12:31:58;94876.44;;;22.50;38.97
6393;BME280;3229;42.674;23.282;2023-03-13T12:34:32;94874.63;;;22.51;38.53
6393;BME280;3229;42.674;23.282;2023-03-13T12:37:08;94879.22;;;22.49;38.72
6393;BME280;3229;42.674;23.282;2023-03-13T12:39:41;94877.63;;;22.48;38.86
6393;BME280;3229;42.674;23.282;2023-03-13T12:42:20;94868.84;;;22.42;38.82
6393;BME280;3229;42.674;23.282;2023-03-13T12:44:48;94868.44;;;22.39;38.74
6393;BME280;3229;42.674;23.282;2023-03-13T12:47:17;94871.44;;;22.42;38.81
6393;BME280;3229;42.674;23.282;2023-03-13T12:50:02;94875.47;;;22.38;38.98
6393;BME280;3229;42.674;23.282;2023-03-13T12:55:36;94867.47;;;22.33;39.33
6393;BME280;3229;42.674;23.282;2023-03-13T12:58:18;94878.69;;;22.34;39.18
6393;BME280;3229;42.674;23.282;2023-03-13T13:00:49;94877.09;;;22.33;39.23
6393;BME280;3229;42.674;23.282;2023-03-13T13:03:28;94878.69;;;22.34;39.09
6393;BME280;3229;42.674;23.282;2023-03-13T13:06:01;94878.69;;;22.34;39.19
6393;BME280;3229;42.674;23.282;2023-03-13T13:08:34;94883.09;;;22.33;39.33
6393;BME280;3229;42.674;23.282;2023-03-13T13:11:37;94864.13;;;22.19;39.40
6393;BME280;3229;42.674;23.282;2023-03-13T13:17:21;94856.31;;;22.13;39.22
6393;BME280;3229;42.674;23.282;2023-03-13T13:19:50;94875.50;;;22.25;39.46
6393;BME280;3229;42.674;23.282;2023-03-13T13:22:45;94867.69;;;22.25;39.51
6393;BME280;3229;42.674;23.282;2023-03-13T13:25:34;94871.31;;;22.24;39.55
6393;BME280;3229;42.674;23.282;2023-03-13T13:30:55;94865.50;;;22.22;39.44
6393;BME280;3229;42.674;23.282;2023-03-13T13:33:37;94858.69;;;22.21;39.40
6393;BME280;3229;42.674;23.282;2023-03-13T13:36:27;94861.69;;;22.18;39.37
6393;BME280;3229;42.674;23.282;2023-03-13T13:38:56;94850.88;;;22.08;39.26
6393;BME280;3229;42.674;23.282;2023-03-13T13:41:42;94862.16;;;21.82;39.04
6393;BME280;3229;42.674;23.282;2023-03-13T13:44:24;94849.97;;;21.49;39.00